Sturgis, MI

12:12 PM EST on February 19, 2017 (GMT -0500)
Kirsch Municipal

Weather History for KIRS - January, 2012

Change the Weather History Date:

Sunday, January 22, 2012

  Actual Average (KHAI) Record (KHAI)
Temperature  
Mean Temperature 26 °F -  
Max Temperature 37 °F 33 °F 55 °F (1964)
Min Temperature 15 °F 18 °F -16 °F (1970)
Degree Days  
Heating Degree Days 39    
Moisture  
Dew Point 24 °F    
Average Humidity 95    
Maximum Humidity 100    
Minimum Humidity 79    
Precipitation  
Precipitation 0.00 in - - ()
Sea Level Pressure  
Sea Level Pressure 29.96 in    
Wind  
Wind Speed 12 mph (SSE)    
Max Wind Speed 16 mph    
Max Gust Speed 22 mph    
Visibility 4 miles    
Events Fog , Rain , Snow    
Averages and records for this station are not official NWS values.
T = Trace of Precipitation, MM = Missing Value Source: NWS Daily Summary

Daily Weather History Graph

Daily Weather History Graph

Search for Another Location

Airport or City:

Trip Planner

Search our weather history database for the weather conditions in past years. The results will help you decide how hot, cold, wet, or windy it might be!

Date:

Astronomy

Jan. 22, 2012 Rise Set
Actual Time 8:03 AM EST 5:43 PM EST
Civil Twilight 7:32 AM EST 6:14 PM EST
Nautical Twilight 6:58 AM EST 6:48 PM EST
Astronomical Twilight 6:25 AM EST 7:21 PM EST
Moon 7:19 AM EST (1/22) 5:25 PM EST (1/22)
Length of Visible Light 10h 41m
Length of Day
9h 40m
Waning Crescent, 0% of the Moon is Illuminated
Jan 22
Waning Crescent
Jan 23
New
Jan 30
First Quarter
Feb 7
Full
Feb 14
Last Quarter

Hourly Weather History & Observations

Time (EST) Temp. Windchill Dew Point Humidity Pressure Visibility Wind Dir Wind Speed Gust Speed Precip Events Conditions
12:15 AM 15.8 °F 4.2 °F 10.4 °F 79% 30.18 in 10.0 mi SE 9.2 mph - N/A   Clear
12:35 AM 15.8 °F 3.4 °F 12.2 °F 86% 30.17 in 10.0 mi SE 10.4 mph - N/A   Mostly Cloudy
12:55 AM 15.8 °F 2.1 °F 12.2 °F 86% 30.15 in 10.0 mi SE 12.7 mph - N/A   Overcast
1:14 AM 17.6 °F 4.3 °F 14.0 °F 86% 30.14 in 10.0 mi SE 12.7 mph 19.6 mph N/A   Overcast
1:35 AM 17.6 °F 4.3 °F 15.8 °F 93% 30.13 in 10.0 mi SE 12.7 mph - N/A   Scattered Clouds
1:55 AM 17.6 °F 4.3 °F 15.8 °F 93% 30.13 in 10.0 mi SSE 12.7 mph 18.4 mph N/A   Clear
2:14 AM 17.6 °F 5.0 °F 15.8 °F 93% 30.14 in 10.0 mi SSE 11.5 mph 17.3 mph N/A   Clear
2:35 AM 19.4 °F 7.9 °F 15.8 °F 86% 30.15 in 10.0 mi SSE 10.4 mph 16.1 mph N/A   Clear
2:55 AM 17.6 °F 5.7 °F 15.8 °F 93% 30.13 in 10.0 mi SSE 10.4 mph - N/A   Clear
3:14 AM 19.4 °F 7.9 °F 15.8 °F 86% 30.14 in 10.0 mi SSE 10.4 mph 16.1 mph N/A   Clear
3:35 AM 19.4 °F 7.9 °F 15.8 °F 86% 30.11 in 10.0 mi SE 10.4 mph - N/A   Clear
3:55 AM 17.6 °F 5.7 °F 15.8 °F 93% 30.11 in 10.0 mi SE 10.4 mph - N/A   Clear
4:14 AM 17.6 °F 5.7 °F 15.8 °F 93% 30.11 in 10.0 mi SSE 10.4 mph - N/A   Clear
4:35 AM 17.6 °F 5.7 °F 15.8 °F 93% 30.09 in 10.0 mi SE 10.4 mph - N/A   Clear
4:55 AM 17.6 °F 5.0 °F 15.8 °F 93% 30.09 in 10.0 mi SSE 11.5 mph 16.1 mph N/A   Clear
5:15 AM 17.6 °F 5.0 °F 15.8 °F 93% 30.10 in 10.0 mi SSE 11.5 mph - N/A   Mostly Cloudy
5:35 AM 17.6 °F 5.0 °F 15.8 °F 93% 30.09 in 10.0 mi SSE 11.5 mph - N/A   Overcast
5:55 AM 17.6 °F 5.7 °F 15.8 °F 93% 30.08 in 10.0 mi SSE 10.4 mph - N/A   Overcast
6:14 AM 17.6 °F 6.4 °F 15.8 °F 93% 30.07 in 10.0 mi SE 9.2 mph - N/A   Overcast
7:14 AM 19.4 °F 8.6 °F 17.6 °F 93% 30.06 in 10.0 mi SE 9.2 mph - N/A   Overcast
7:35 AM 19.4 °F 7.2 °F 17.6 °F 93% 30.05 in 7.0 mi SSE 11.5 mph - N/A   Overcast
7:55 AM 19.4 °F 6.6 °F 17.6 °F 93% 30.05 in 7.0 mi SE 12.7 mph - N/A   Overcast
8:15 AM 19.4 °F 7.9 °F 17.6 °F 93% 30.05 in 5.0 mi SE 10.4 mph - N/A   Overcast
8:35 AM 19.4 °F 7.9 °F 17.6 °F 93% 30.03 in 4.0 mi SE 10.4 mph 17.3 mph N/A   Overcast
8:55 AM 19.4 °F 6.6 °F 19.4 °F 100% 30.04 in 3.0 mi SSE 12.7 mph - N/A   Overcast
9:14 AM 21.2 °F 8.3 °F 19.4 °F 93% 30.04 in 2.5 mi SSE 13.8 mph 19.6 mph N/A   Overcast
9:55 AM 21.2 °F 8.3 °F 21.2 °F 100% 30.04 in 1.8 mi SSE 13.8 mph - N/A   Overcast
10:14 AM 21.2 °F 8.3 °F 21.2 °F 100% 30.04 in 1.8 mi SSE 13.8 mph 19.6 mph N/A   Overcast
10:35 AM 21.2 °F 8.3 °F 21.2 °F 100% 30.04 in 1.8 mi SSE 13.8 mph - N/A   Overcast
10:54 AM 23.0 °F 10.1 °F 21.2 °F 93% 30.03 in 2.0 mi SE 15.0 mph 19.6 mph N/A   Overcast
11:15 AM 24.8 °F 12.9 °F 21.2 °F 86% 30.02 in 1.8 mi SSE 13.8 mph 18.4 mph N/A   Overcast
11:35 AM 24.8 °F 12.9 °F 23.0 °F 93% 30.01 in 1.5 mi SSE 13.8 mph 18.4 mph N/A   Overcast
11:54 AM 24.8 °F 12.9 °F 23.0 °F 93% 29.99 in 1.0 mi SSE 13.8 mph - N/A   Overcast
12:15 PM 24.8 °F 11.9 °F 24.8 °F 100% 29.98 in 1.0 mi SSE 16.1 mph 19.6 mph N/A Snow Light Snow
12:35 PM 24.8 °F 12.9 °F 24.8 °F 100% 29.96 in 1.0 mi SE 13.8 mph 19.6 mph N/A Snow Light Snow
12:54 PM 26.6 °F 16.2 °F 24.8 °F 93% 29.95 in 1.0 mi SSE 11.5 mph - N/A   Overcast
1:15 PM 26.6 °F 16.2 °F 26.6 °F 100% 29.93 in 1.5 mi SSE 11.5 mph 17.3 mph N/A   Overcast
1:34 PM 28.4 °F 19.1 °F 26.6 °F 93% 29.93 in 1.8 mi SSE 10.4 mph - N/A   Overcast
1:55 PM 28.4 °F 18.5 °F 26.6 °F 93% 29.92 in 2.5 mi SSE 11.5 mph 17.3 mph N/A   Overcast
2:15 PM 28.4 °F 18.5 °F 28.4 °F 100% 29.92 in 2.5 mi SSE 11.5 mph 16.1 mph N/A   Overcast
2:35 PM 30.2 °F 20.2 °F 28.4 °F 93% 29.91 in 3.0 mi SSE 12.7 mph - N/A   Overcast
3:15 PM 30.2 °F 20.8 °F 28.4 °F 93% 29.92 in 3.0 mi SSE 11.5 mph - N/A   Overcast
3:34 PM 30.2 °F 20.8 °F 28.4 °F 93% 29.91 in 2.0 mi SSE 11.5 mph - N/A   Overcast
4:14 PM 30.2 °F 19.3 °F 30.2 °F 100% 29.88 in 0.8 mi SE 15.0 mph - N/A   Overcast
4:35 PM 30.2 °F 20.2 °F 30.2 °F 100% 29.88 in 0.5 mi SSE 12.7 mph 19.6 mph N/A Fog Light Freezing Fog
4:55 PM 30.2 °F 19.3 °F 30.2 °F 100% 29.88 in 0.5 mi SSE 15.0 mph 18.4 mph N/A Fog Light Freezing Fog
5:14 PM 32.0 °F 22.5 °F 30.2 °F 93% 29.86 in 0.8 mi SSE 12.7 mph 19.6 mph N/A   Overcast
5:35 PM 32.0 °F 22.5 °F 30.2 °F 93% 29.85 in 0.8 mi SE 12.7 mph 19.6 mph N/A   Overcast
5:54 PM 32.0 °F 22.1 °F 32.0 °F 100% 29.84 in 1.8 mi SE 13.8 mph - N/A   Overcast
6:35 PM 33.8 °F 24.8 °F 32.0 °F 93% 29.85 in 2.5 mi SSE 12.7 mph 18.4 mph N/A   Overcast
7:14 PM 33.8 °F 24.8 °F 33.8 °F 100% 29.83 in 1.8 mi SSE 12.7 mph 18.4 mph N/A   Overcast
7:35 PM 33.8 °F 25.3 °F 33.8 °F 100% 29.83 in 2.0 mi SSE 11.5 mph - N/A   Overcast
7:55 PM 33.8 °F 24.3 °F 33.8 °F 100% 29.81 in 1.8 mi SE 13.8 mph 21.9 mph N/A   Overcast
8:15 PM 33.8 °F 25.3 °F 33.8 °F 100% 29.82 in 1.8 mi SSE 11.5 mph - N/A   Overcast
8:35 PM 35.6 °F 26.6 °F 33.8 °F 93% 29.80 in 1.0 mi SSE 13.8 mph - N/A   Overcast
8:54 PM 35.6 °F 27.1 °F 35.6 °F 100% 29.80 in 0.8 mi SSE 12.7 mph - N/A   Overcast
9:15 PM 35.6 °F 27.1 °F 35.6 °F 100% 29.79 in 0.8 mi SSE 12.7 mph - N/A   Overcast
9:35 PM 35.6 °F 26.2 °F 35.6 °F 100% 29.77 in 0.8 mi SSE 15.0 mph - N/A   Overcast
9:54 PM 35.6 °F 25.9 °F 35.6 °F 100% 29.76 in 0.8 mi SSE 16.1 mph - N/A   Overcast
10:15 PM 35.6 °F 25.9 °F 35.6 °F 100% 29.74 in 0.5 mi SE 16.1 mph - N/A Rain Rain
10:35 PM 37.4 °F 29.3 °F 35.6 °F 93% 29.73 in 0.5 mi SSE 12.7 mph - N/A Fog Fog
10:54 PM 37.4 °F 29.3 °F 37.4 °F 100% 29.71 in 0.5 mi SSE 12.7 mph - N/A Fog Fog
11:15 PM 37.4 °F 28.5 °F 37.4 °F 100% 29.68 in 0.5 mi SE 15.0 mph - N/A Fog Fog
11:34 PM 37.4 °F 29.3 °F 35.6 °F 93% 29.67 in 0.5 mi SE 12.7 mph - N/A Fog Fog
11:54 PM 37.4 °F 28.9 °F 35.6 °F 93% 29.66 in 0.5 mi SSE 13.8 mph - N/A Fog Fog